sensor_id;sensor_type;location;lat;lon;timestamp;temperature;humidity
45409;DHT22;31162;51.076;3.784;2023-12-22T00:00:38;10.70;99.90
45409;DHT22;31162;51.076;3.784;2023-12-22T00:03:04;10.50;99.90
45409;DHT22;31162;51.076;3.784;2023-12-22T00:05:29;10.30;99.90
45409;DHT22;31162;51.076;3.784;2023-12-22T00:07:55;10.20;99.90
45409;DHT22;31162;51.076;3.784;2023-12-22T00:10:21;10.00;99.90
45409;DHT22;31162;51.076;3.784;2023-12-22T00:12:47;9.90;99.90
45409;DHT22;31162;51.076;3.784;2023-12-22T00:15:12;9.90;99.90
45409;DHT22;31162;51.076;3.784;2023-12-22T00:17:38;9.80;99.90
45409;DHT22;31162;51.076;3.784;2023-12-22T00:20:04;9.80;99.90
45409;DHT22;31162;51.076;3.784;2023-12-22T00:22:30;9.70;99.90
45409;DHT22;31162;51.076;3.784;2023-12-22T00:24:56;9.70;99.90
45409;DHT22;31162;51.076;3.784;2023-12-22T00:27:21;9.70;99.90
45409;DHT22;31162;51.076;3.784;2023-12-22T00:29:47;9.80;99.90
45409;DHT22;31162;51.076;3.784;2023-12-22T00:32:12;9.80;99.90
45409;DHT22;31162;51.076;3.784;2023-12-22T00:34:38;9.80;99.90
45409;DHT22;31162;51.076;3.784;2023-12-22T00:37:04;9.80;99.90
45409;DHT22;31162;51.076;3.784;2023-12-22T00:39:32;9.80;99.90
45409;DHT22;31162;51.076;3.784;2023-12-22T00:41:58;9.90;99.90
45409;DHT22;31162;51.076;3.784;2023-12-22T00:44:23;10.00;99.90
45409;DHT22;31162;51.076;3.784;2023-12-22T00:46:52;10.10;99.90
45409;DHT22;31162;51.076;3.784;2023-12-22T00:49:18;10.20;99.90
45409;DHT22;31162;51.076;3.784;2023-12-22T00:51:44;10.30;99.90
45409;DHT22;31162;51.076;3.784;2023-12-22T00:54:09;10.30;99.90
45409;DHT22;31162;51.076;3.784;2023-12-22T00:56:35;10.30;99.90
45409;DHT22;31162;51.076;3.784;2023-12-22T00:59:01;10.40;99.90
45409;DHT22;31162;51.076;3.784;2023-12-22T01:01:26;10.50;99.90
45409;DHT22;31162;51.076;3.784;2023-12-22T01:03:52;10.50;99.90
45409;DHT22;31162;51.076;3.784;2023-12-22T01:06:17;10.50;99.90
45409;DHT22;31162;51.076;3.784;2023-12-22T01:08:43;10.60;99.90
45409;DHT22;31162;51.076;3.784;2023-12-22T01:11:09;10.60;99.90
45409;DHT22;31162;51.076;3.784;2023-12-22T01:13:34;10.60;99.90
45409;DHT22;31162;51.076;3.784;2023-12-22T01:16:00;10.50;99.90
45409;DHT22;31162;51.076;3.784;2023-12-22T01:18:26;10.50;99.90
45409;DHT22;31162;51.076;3.784;2023-12-22T01:20:54;10.50;99.90
45409;DHT22;31162;51.076;3.784;2023-12-22T01:23:20;10.50;99.90
45409;DHT22;31162;51.076;3.784;2023-12-22T01:25:45;10.40;99.90
45409;DHT22;31162;51.076;3.784;2023-12-22T01:28:11;10.40;99.90
45409;DHT22;31162;51.076;3.784;2023-12-22T01:30:36;10.50;99.90
45409;DHT22;31162;51.076;3.784;2023-12-22T01:33:02;10.50;99.90
45409;DHT22;31162;51.076;3.784;2023-12-22T01:35:28;10.50;99.90
45409;DHT22;31162;51.076;3.784;2023-12-22T01:37:54;10.60;99.90
45409;DHT22;31162;51.076;3.784;2023-12-22T01:40:20;10.70;99.90
45409;DHT22;31162;51.076;3.784;2023-12-22T01:42:45;10.70;99.90
45409;DHT22;31162;51.076;3.784;2023-12-22T01:45:11;10.60;99.90
45409;DHT22;31162;51.076;3.784;2023-12-22T01:47:37;10.70;99.90
45409;DHT22;31162;51.076;3.784;2023-12-22T01:50:04;10.80;99.90
45409;DHT22;31162;51.076;3.784;2023-12-22T01:52:30;10.70;99.90
45409;DHT22;31162;51.076;3.784;2023-12-22T01:54:55;10.70;99.90
45409;DHT22;31162;51.076;3.784;2023-12-22T01:57:21;10.70;99.90
45409;DHT22;31162;51.076;3.784;2023-12-22T01:59:48;10.60;99.90
45409;DHT22;31162;51.076;3.784;2023-12-22T02:02:14;10.60;99.90
45409;DHT22;31162;51.076;3.784;2023-12-22T02:04:40;10.60;99.90
45409;DHT22;31162;51.076;3.784;2023-12-22T02:07:08;10.60;99.90
45409;DHT22;31162;51.076;3.784;2023-12-22T02:09:35;10.60;99.90
45409;DHT22;31162;51.076;3.784;2023-12-22T02:12:01;10.70;99.90
45409;DHT22;31162;51.076;3.784;2023-12-22T02:14:27;10.60;99.90
45409;DHT22;31162;51.076;3.784;2023-12-22T02:22:08;10.50;99.90
45409;DHT22;31162;51.076;3.784;2023-12-22T02:24:34;10.50;99.90
45409;DHT22;31162;51.076;3.784;2023-12-22T02:30:12;10.40;99.90
45409;DHT22;31162;51.076;3.784;2023-12-22T02:32:42;10.40;99.90
45409;DHT22;31162;51.076;3.784;2023-12-22T02:35:23;10.40;99.90
45409;DHT22;31162;51.076;3.784;2023-12-22T02:37:49;10.40;99.90
45409;DHT22;31162;51.076;3.784;2023-12-22T02:40:16;10.30;99.90
45409;DHT22;31162;51.076;3.784;2023-12-22T02:42:43;10.30;99.90
45409;DHT22;31162;51.076;3.784;2023-12-22T02:45:17;10.30;99.90
45409;DHT22;31162;51.076;3.784;2023-12-22T02:47:43;10.40;99.90
45409;DHT22;31162;51.076;3.784;2023-12-22T02:50:10;10.30;99.90
45409;DHT22;31162;51.076;3.784;2023-12-22T02:52:37;10.30;99.90
45409;DHT22;31162;51.076;3.784;2023-12-22T02:55:03;10.30;99.90
45409;DHT22;31162;51.076;3.784;2023-12-22T02:57:29;10.30;99.90
45409;DHT22;31162;51.076;3.784;2023-12-22T02:59:56;10.20;99.90
45409;DHT22;31162;51.076;3.784;2023-12-22T03:02:22;10.20;99.90
45409;DHT22;31162;51.076;3.784;2023-12-22T03:04:47;10.10;99.90
45409;DHT22;31162;51.076;3.784;2023-12-22T03:07:13;10.00;99.90
45409;DHT22;31162;51.076;3.784;2023-12-22T03:09:39;10.10;99.90
45409;DHT22;31162;51.076;3.784;2023-12-22T03:12:06;10.10;99.90
45409;DHT22;31162;51.076;3.784;2023-12-22T03:14:33;9.90;99.90
45409;DHT22;31162;51.076;3.784;2023-12-22T03:17:03;9.80;99.90
45409;DHT22;31162;51.076;3.784;2023-12-22T03:19:29;9.80;99.90
45409;DHT22;31162;51.076;3.784;2023-12-22T03:21:55;9.80;99.90
45409;DHT22;31162;51.076;3.784;2023-12-22T03:24:25;9.90;99.90
45409;DHT22;31162;51.076;3.784;2023-12-22T03:26:51;10.00;99.90
45409;DHT22;31162;51.076;3.784;2023-12-22T03:29:17;9.90;99.90
45409;DHT22;31162;51.076;3.784;2023-12-22T03:31:44;9.90;99.90
45409;DHT22;31162;51.076;3.784;2023-12-22T03:34:10;9.80;99.90
45409;DHT22;31162;51.076;3.784;2023-12-22T03:36:35;9.80;99.90
45409;DHT22;31162;51.076;3.784;2023-12-22T03:39:02;9.70;99.90
45409;DHT22;31162;51.076;3.784;2023-12-22T03:41:29;9.70;99.90
45409;DHT22;31162;51.076;3.784;2023-12-22T03:43:58;9.80;99.90
45409;DHT22;31162;51.076;3.784;2023-12-22T03:46:23;9.80;99.90
45409;DHT22;31162;51.076;3.784;2023-12-22T03:48:52;9.70;99.90
45409;DHT22;31162;51.076;3.784;2023-12-22T03:51:18;9.80;99.90
45409;DHT22;31162;51.076;3.784;2023-12-22T03:53:44;9.80;99.90
45409;DHT22;31162;51.076;3.784;2023-12-22T03:56:09;9.80;99.90
45409;DHT22;31162;51.076;3.784;2023-12-22T03:58:36;9.80;99.90
45409;DHT22;31162;51.076;3.784;2023-12-22T04:01:02;9.70;99.90
45409;DHT22;31162;51.076;3.784;2023-12-22T04:03:27;9.70;99.90
45409;DHT22;31162;51.076;3.784;2023-12-22T04:05:53;9.60;99.90
45409;DHT22;31162;51.076;3.784;2023-12-22T04:08:19;9.60;99.90
45409;DHT22;31162;51.076;3.784;2023-12-22T04:10:46;9.60;99.90
45409;DHT22;31162;51.076;3.784;2023-12-22T04:13:12;9.50;99.90
45409;DHT22;31162;51.076;3.784;2023-12-22T04:15:38;9.50;99.90
45409;DHT22;31162;51.076;3.784;2023-12-22T04:18:03;9.60;99.90
45409;DHT22;31162;51.076;3.784;2023-12-22T04:20:29;9.60;99.90
45409;DHT22;31162;51.076;3.784;2023-12-22T04:22:55;9.50;99.90
45409;DHT22;31162;51.076;3.784;2023-12-22T04:25:20;9.50;99.90
45409;DHT22;31162;51.076;3.784;2023-12-22T04:27:48;9.50;99.90
45409;DHT22;31162;51.076;3.784;2023-12-22T04:30:15;9.50;99.90
45409;DHT22;31162;51.076;3.784;2023-12-22T04:32:40;9.60;99.90
45409;DHT22;31162;51.076;3.784;2023-12-22T04:35:06;9.60;99.90
45409;DHT22;31162;51.076;3.784;2023-12-22T04:37:32;9.80;99.90
45409;DHT22;31162;51.076;3.784;2023-12-22T04:39:58;9.90;99.90
45409;DHT22;31162;51.076;3.784;2023-12-22T04:42:24;9.90;99.90
45409;DHT22;31162;51.076;3.784;2023-12-22T04:44:53;10.00;99.90
45409;DHT22;31162;51.076;3.784;2023-12-22T04:47:19;10.00;99.90
45409;DHT22;31162;51.076;3.784;2023-12-22T04:49:44;10.00;99.90
45409;DHT22;31162;51.076;3.784;2023-12-22T04:52:11;10.00;99.90
45409;DHT22;31162;51.076;3.784;2023-12-22T04:54:37;10.00;99.90
45409;DHT22;31162;51.076;3.784;2023-12-22T04:57:03;10.10;99.90
45409;DHT22;31162;51.076;3.784;2023-12-22T04:59:29;10.10;99.90
45409;DHT22;31162;51.076;3.784;2023-12-22T05:01:55;10.20;99.90
45409;DHT22;31162;51.076;3.784;2023-12-22T05:04:20;10.20;99.90
45409;DHT22;31162;51.076;3.784;2023-12-22T05:06:47;10.20;99.90
45409;DHT22;31162;51.076;3.784;2023-12-22T05:09:12;10.30;99.90
45409;DHT22;31162;51.076;3.784;2023-12-22T05:11:38;10.20;99.90
45409;DHT22;31162;51.076;3.784;2023-12-22T05:14:04;10.20;99.90
45409;DHT22;31162;51.076;3.784;2023-12-22T05:16:29;10.20;99.90
45409;DHT22;31162;51.076;3.784;2023-12-22T05:18:57;10.20;99.90
45409;DHT22;31162;51.076;3.784;2023-12-22T05:21:23;10.20;99.90
45409;DHT22;31162;51.076;3.784;2023-12-22T05:23:49;10.40;99.90
45409;DHT22;31162;51.076;3.784;2023-12-22T05:26:19;10.50;99.90
45409;DHT22;31162;51.076;3.784;2023-12-22T05:28:45;10.60;99.90
45409;DHT22;31162;51.076;3.784;2023-12-22T05:31:10;10.60;99.90
45409;DHT22;31162;51.076;3.784;2023-12-22T05:33:36;10.60;99.90
45409;DHT22;31162;51.076;3.784;2023-12-22T05:36:03;10.60;99.90
45409;DHT22;31162;51.076;3.784;2023-12-22T05:38:28;10.70;99.90
45409;DHT22;31162;51.076;3.784;2023-12-22T05:40:54;10.70;99.90
45409;DHT22;31162;51.076;3.784;2023-12-22T05:43:20;10.70;99.90
45409;DHT22;31162;51.076;3.784;2023-12-22T05:45:45;10.80;99.90
45409;DHT22;31162;51.076;3.784;2023-12-22T05:48:11;10.90;99.90
45409;DHT22;31162;51.076;3.784;2023-12-22T05:50:37;10.90;99.90
45409;DHT22;31162;51.076;3.784;2023-12-22T05:53:02;10.90;99.90
45409;DHT22;31162;51.076;3.784;2023-12-22T05:55:28;10.90;99.90
45409;DHT22;31162;51.076;3.784;2023-12-22T05:57:54;10.90;99.90
45409;DHT22;31162;51.076;3.784;2023-12-22T06:00:21;10.80;99.90
45409;DHT22;31162;51.076;3.784;2023-12-22T06:02:47;10.80;99.90
45409;DHT22;31162;51.076;3.784;2023-12-22T06:05:12;10.80;99.90
45409;DHT22;31162;51.076;3.784;2023-12-22T06:07:39;10.80;99.90
45409;DHT22;31162;51.076;3.784;2023-12-22T06:10:05;10.80;99.90
45409;DHT22;31162;51.076;3.784;2023-12-22T06:12:31;10.70;99.90
45409;DHT22;31162;51.076;3.784;2023-12-22T06:14:57;10.70;99.90
45409;DHT22;31162;51.076;3.784;2023-12-22T06:17:22;10.60;99.90
45409;DHT22;31162;51.076;3.784;2023-12-22T06:19:48;10.70;99.90
45409;DHT22;31162;51.076;3.784;2023-12-22T06:22:13;10.70;99.90
45409;DHT22;31162;51.076;3.784;2023-12-22T06:24:39;10.70;99.90
45409;DHT22;31162;51.076;3.784;2023-12-22T06:27:05;10.70;99.90
45409;DHT22;31162;51.076;3.784;2023-12-22T06:29:32;10.60;99.90
45409;DHT22;31162;51.076;3.784;2023-12-22T06:31:58;10.60;99.90
45409;DHT22;31162;51.076;3.784;2023-12-22T06:34:23;10.60;99.90
45409;DHT22;31162;51.076;3.784;2023-12-22T06:36:50;10.40;99.90
45409;DHT22;31162;51.076;3.784;2023-12-22T06:39:15;10.40;99.90
45409;DHT22;31162;51.076;3.784;2023-12-22T06:41:41;10.30;99.90
45409;DHT22;31162;51.076;3.784;2023-12-22T06:44:07;10.40;99.90
45409;DHT22;31162;51.076;3.784;2023-12-22T06:46:32;10.40;99.90
45409;DHT22;31162;51.076;3.784;2023-12-22T06:48:59;10.50;99.90
45409;DHT22;31162;51.076;3.784;2023-12-22T06:53:51;10.50;99.90
45409;DHT22;31162;51.076;3.784;2023-12-22T06:56:21;10.50;99.90
45409;DHT22;31162;51.076;3.784;2023-12-22T06:58:48;10.50;99.90
45409;DHT22;31162;51.076;3.784;2023-12-22T07:01:44;10.50;99.90
45409;DHT22;31162;51.076;3.784;2023-12-22T07:04:09;10.50;99.90
45409;DHT22;31162;51.076;3.784;2023-12-22T07:06:35;10.40;99.90
45409;DHT22;31162;51.076;3.784;2023-12-22T07:11:49;10.60;99.90
45409;DHT22;31162;51.076;3.784;2023-12-22T07:14:21;10.50;99.90
45409;DHT22;31162;51.076;3.784;2023-12-22T07:16:47;10.60;99.90
45409;DHT22;31162;51.076;3.784;2023-12-22T07:19:13;10.60;99.90
45409;DHT22;31162;51.076;3.784;2023-12-22T07:21:39;10.50;99.90
45409;DHT22;31162;51.076;3.784;2023-12-22T07:24:06;10.50;99.90
45409;DHT22;31162;51.076;3.784;2023-12-22T07:26:31;10.60;99.90
45409;DHT22;31162;51.076;3.784;2023-12-22T07:28:57;10.60;99.90
45409;DHT22;31162;51.076;3.784;2023-12-22T07:31:23;10.60;99.90
45409;DHT22;31162;51.076;3.784;2023-12-22T07:33:49;10.60;99.90
45409;DHT22;31162;51.076;3.784;2023-12-22T07:36:15;10.60;99.90
45409;DHT22;31162;51.076;3.784;2023-12-22T07:38:41;10.50;99.90
45409;DHT22;31162;51.076;3.784;2023-12-22T07:41:07;10.50;99.90
45409;DHT22;31162;51.076;3.784;2023-12-22T07:43:33;10.40;99.90
45409;DHT22;31162;51.076;3.784;2023-12-22T07:45:59;10.50;99.90
45409;DHT22;31162;51.076;3.784;2023-12-22T07:48:24;10.50;99.90
45409;DHT22;31162;51.076;3.784;2023-12-22T07:50:50;10.60;99.90
45409;DHT22;31162;51.076;3.784;2023-12-22T07:53:16;10.70;99.90
45409;DHT22;31162;51.076;3.784;2023-12-22T07:55:43;10.60;99.90
45409;DHT22;31162;51.076;3.784;2023-12-22T07:58:08;10.60;99.90
45409;DHT22;31162;51.076;3.784;2023-12-22T08:00:34;10.60;99.90
45409;DHT22;31162;51.076;3.784;2023-12-22T08:02:59;10.60;99.90
45409;DHT22;31162;51.076;3.784;2023-12-22T08:05:26;10.60;99.90
45409;DHT22;31162;51.076;3.784;2023-12-22T08:07:52;10.60;99.90
45409;DHT22;31162;51.076;3.784;2023-12-22T08:10:17;10.60;99.90
45409;DHT22;31162;51.076;3.784;2023-12-22T08:12:43;10.70;99.90
45409;DHT22;31162;51.076;3.784;2023-12-22T08:15:09;10.60;99.90
45409;DHT22;31162;51.076;3.784;2023-12-22T08:17:47;10.60;99.90
45409;DHT22;31162;51.076;3.784;2023-12-22T08:20:19;10.70;99.90
45409;DHT22;31162;51.076;3.784;2023-12-22T08:22:49;10.70;99.90
45409;DHT22;31162;51.076;3.784;2023-12-22T08:25:15;10.70;99.90
45409;DHT22;31162;51.076;3.784;2023-12-22T08:27:41;10.80;99.90
45409;DHT22;31162;51.076;3.784;2023-12-22T08:30:10;10.80;99.90
45409;DHT22;31162;51.076;3.784;2023-12-22T08:32:36;10.80;99.90
45409;DHT22;31162;51.076;3.784;2023-12-22T08:35:02;10.80;99.90
45409;DHT22;31162;51.076;3.784;2023-12-22T08:37:30;10.80;99.90
45409;DHT22;31162;51.076;3.784;2023-12-22T08:39:55;10.80;99.90
45409;DHT22;31162;51.076;3.784;2023-12-22T08:42:21;10.90;99.90
45409;DHT22;31162;51.076;3.784;2023-12-22T08:44:48;10.90;99.90
45409;DHT22;31162;51.076;3.784;2023-12-22T08:47:13;10.90;99.90
45409;DHT22;31162;51.076;3.784;2023-12-22T08:49:39;10.90;99.90
45409;DHT22;31162;51.076;3.784;2023-12-22T08:52:05;11.00;99.90
45409;DHT22;31162;51.076;3.784;2023-12-22T08:54:30;11.00;99.90
45409;DHT22;31162;51.076;3.784;2023-12-22T08:56:56;11.10;99.90
45409;DHT22;31162;51.076;3.784;2023-12-22T08:59:22;11.10;99.90
45409;DHT22;31162;51.076;3.784;2023-12-22T09:01:48;11.00;99.90
45409;DHT22;31162;51.076;3.784;2023-12-22T09:04:13;11.00;99.90
45409;DHT22;31162;51.076;3.784;2023-12-22T09:06:40;11.00;99.90
45409;DHT22;31162;51.076;3.784;2023-12-22T09:09:06;11.10;99.90
45409;DHT22;31162;51.076;3.784;2023-12-22T09:11:33;11.20;99.90
45409;DHT22;31162;51.076;3.784;2023-12-22T09:13:58;11.20;99.90
45409;DHT22;31162;51.076;3.784;2023-12-22T09:16:24;11.20;99.90
45409;DHT22;31162;51.076;3.784;2023-12-22T09:18:53;11.20;99.90
45409;DHT22;31162;51.076;3.784;2023-12-22T09:21:19;11.30;99.90
45409;DHT22;31162;51.076;3.784;2023-12-22T09:23:46;11.40;99.90
45409;DHT22;31162;51.076;3.784;2023-12-22T09:26:15;11.40;99.90
45409;DHT22;31162;51.076;3.784;2023-12-22T09:28:42;11.50;99.90
45409;DHT22;31162;51.076;3.784;2023-12-22T09:31:08;11.50;99.90
45409;DHT22;31162;51.076;3.784;2023-12-22T09:33:33;11.50;99.90
45409;DHT22;31162;51.076;3.784;2023-12-22T09:35:59;11.70;99.90
45409;DHT22;31162;51.076;3.784;2023-12-22T09:38:25;11.70;99.90
45409;DHT22;31162;51.076;3.784;2023-12-22T09:40:51;11.80;99.90
45409;DHT22;31162;51.076;3.784;2023-12-22T09:43:21;11.80;99.90
45409;DHT22;31162;51.076;3.784;2023-12-22T09:45:48;11.90;99.90
45409;DHT22;31162;51.076;3.784;2023-12-22T09:48:15;12.00;99.90
45409;DHT22;31162;51.076;3.784;2023-12-22T09:50:46;11.90;99.90
45409;DHT22;31162;51.076;3.784;2023-12-22T09:53:15;11.90;99.90
45409;DHT22;31162;51.076;3.784;2023-12-22T09:55:46;12.00;99.90
45409;DHT22;31162;51.076;3.784;2023-12-22T09:58:15;12.00;99.90
45409;DHT22;31162;51.076;3.784;2023-12-22T10:00:44;12.00;99.90
45409;DHT22;31162;51.076;3.784;2023-12-22T10:03:12;11.90;99.90
45409;DHT22;31162;51.076;3.784;2023-12-22T10:05:41;11.80;99.90
45409;DHT22;31162;51.076;3.784;2023-12-22T10:08:09;11.80;99.90
45409;DHT22;31162;51.076;3.784;2023-12-22T10:10:41;11.90;99.90
45409;DHT22;31162;51.076;3.784;2023-12-22T10:13:08;12.00;99.90
45409;DHT22;31162;51.076;3.784;2023-12-22T10:15:39;12.00;99.90
45409;DHT22;31162;51.076;3.784;2023-12-22T10:18:07;12.00;99.90
45409;DHT22;31162;51.076;3.784;2023-12-22T10:20:34;12.10;99.90
45409;DHT22;31162;51.076;3.784;2023-12-22T10:23:00;12.10;99.90
45409;DHT22;31162;51.076;3.784;2023-12-22T10:25:29;12.20;99.90
45409;DHT22;31162;51.076;3.784;2023-12-22T10:27:55;12.10;99.90
45409;DHT22;31162;51.076;3.784;2023-12-22T10:30:21;12.10;99.90
45409;DHT22;31162;51.076;3.784;2023-12-22T10:32:50;12.00;99.90
45409;DHT22;31162;51.076;3.784;2023-12-22T10:35:17;12.00;99.90
45409;DHT22;31162;51.076;3.784;2023-12-22T10:37:45;11.90;99.90
45409;DHT22;31162;51.076;3.784;2023-12-22T10:40:11;11.90;99.90
45409;DHT22;31162;51.076;3.784;2023-12-22T10:42:37;11.90;99.90
45409;DHT22;31162;51.076;3.784;2023-12-22T10:45:03;12.00;99.90
45409;DHT22;31162;51.076;3.784;2023-12-22T10:47:29;12.00;99.90
45409;DHT22;31162;51.076;3.784;2023-12-22T10:49:55;12.10;99.90
45409;DHT22;31162;51.076;3.784;2023-12-22T10:52:20;12.00;99.90
45409;DHT22;31162;51.076;3.784;2023-12-22T10:54:48;12.10;99.90
45409;DHT22;31162;51.076;3.784;2023-12-22T10:57:17;12.10;99.90
45409;DHT22;31162;51.076;3.784;2023-12-22T10:59:47;12.10;99.90
45409;DHT22;31162;51.076;3.784;2023-12-22T11:02:16;12.20;99.90
45409;DHT22;31162;51.076;3.784;2023-12-22T11:04:56;12.30;99.90
45409;DHT22;31162;51.076;3.784;2023-12-22T11:07:24;12.30;99.90
45409;DHT22;31162;51.076;3.784;2023-12-22T11:09:56;12.40;99.90
45409;DHT22;31162;51.076;3.784;2023-12-22T11:12:23;12.40;99.90
45409;DHT22;31162;51.076;3.784;2023-12-22T11:14:50;12.40;99.90
45409;DHT22;31162;51.076;3.784;2023-12-22T11:17:22;12.40;99.90
45409;DHT22;31162;51.076;3.784;2023-12-22T11:19:53;12.50;99.90
45409;DHT22;31162;51.076;3.784;2023-12-22T11:22:21;12.40;99.90
45409;DHT22;31162;51.076;3.784;2023-12-22T11:24:47;12.40;99.90
45409;DHT22;31162;51.076;3.784;2023-12-22T11:27:17;12.30;99.90
45409;DHT22;31162;51.076;3.784;2023-12-22T11:29:47;12.30;99.90
45409;DHT22;31162;51.076;3.784;2023-12-22T11:32:15;12.30;99.90
45409;DHT22;31162;51.076;3.784;2023-12-22T11:34:43;12.30;99.90
45409;DHT22;31162;51.076;3.784;2023-12-22T11:37:11;12.30;99.90
45409;DHT22;31162;51.076;3.784;2023-12-22T11:39:37;12.40;99.90
45409;DHT22;31162;51.076;3.784;2023-12-22T11:42:04;12.50;99.90
45409;DHT22;31162;51.076;3.784;2023-12-22T11:44:31;12.70;99.90
45409;DHT22;31162;51.076;3.784;2023-12-22T11:47:07;12.70;99.90
45409;DHT22;31162;51.076;3.784;2023-12-22T11:49:36;12.70;99.90
45409;DHT22;31162;51.076;3.784;2023-12-22T11:57:29;12.70;99.90
45409;DHT22;31162;51.076;3.784;2023-12-22T12:00:08;12.80;99.90
45409;DHT22;31162;51.076;3.784;2023-12-22T12:02:36;12.80;99.90
45409;DHT22;31162;51.076;3.784;2023-12-22T12:05:04;12.80;99.90
45409;DHT22;31162;51.076;3.784;2023-12-22T12:10:21;12.80;99.90
45409;DHT22;31162;51.076;3.784;2023-12-22T12:13:05;12.80;99.90
45409;DHT22;31162;51.076;3.784;2023-12-22T12:15:33;12.80;99.90
45409;DHT22;31162;51.076;3.784;2023-12-22T12:18:00;12.80;99.90
45409;DHT22;31162;51.076;3.784;2023-12-22T12:20:26;12.80;99.90
45409;DHT22;31162;51.076;3.784;2023-12-22T12:22:53;12.90;99.90
45409;DHT22;31162;51.076;3.784;2023-12-22T12:25:32;12.70;99.90
45409;DHT22;31162;51.076;3.784;2023-12-22T12:28:07;12.70;99.90
45409;DHT22;31162;51.076;3.784;2023-12-22T12:30:37;12.70;99.90
45409;DHT22;31162;51.076;3.784;2023-12-22T12:33:10;12.80;99.90
45409;DHT22;31162;51.076;3.784;2023-12-22T12:35:38;12.70;99.90
45409;DHT22;31162;51.076;3.784;2023-12-22T12:38:04;12.70;99.90
45409;DHT22;31162;51.076;3.784;2023-12-22T12:40:30;12.70;99.90
45409;DHT22;31162;51.076;3.784;2023-12-22T12:42:58;12.80;99.90
45409;DHT22;31162;51.076;3.784;2023-12-22T12:45:25;12.90;99.90
45409;DHT22;31162;51.076;3.784;2023-12-22T12:47:57;12.90;99.90
45409;DHT22;31162;51.076;3.784;2023-12-22T12:50:26;12.90;99.90
45409;DHT22;31162;51.076;3.784;2023-12-22T12:52:55;12.70;99.90
45409;DHT22;31162;51.076;3.784;2023-12-22T12:55:25;12.80;99.90
45409;DHT22;31162;51.076;3.784;2023-12-22T12:57:52;12.60;99.90
45409;DHT22;31162;51.076;3.784;2023-12-22T13:00:38;12.50;99.90
45409;DHT22;31162;51.076;3.784;2023-12-22T13:03:05;12.60;99.90
45409;DHT22;31162;51.076;3.784;2023-12-22T13:05:31;12.50;99.90
45409;DHT22;31162;51.076;3.784;2023-12-22T13:10:34;12.60;99.90
45409;DHT22;31162;51.076;3.784;2023-12-22T13:13:00;12.60;99.90
45409;DHT22;31162;51.076;3.784;2023-12-22T13:15:25;12.70;99.90
45409;DHT22;31162;51.076;3.784;2023-12-22T13:17:52;12.70;99.90
45409;DHT22;31162;51.076;3.784;2023-12-22T13:20:18;12.70;99.90
45409;DHT22;31162;51.076;3.784;2023-12-22T13:22:44;12.70;99.90
45409;DHT22;31162;51.076;3.784;2023-12-22T13:25:10;12.70;99.90
45409;DHT22;31162;51.076;3.784;2023-12-22T13:27:47;12.70;99.90
45409;DHT22;31162;51.076;3.784;2023-12-22T13:30:14;12.70;99.90
45409;DHT22;31162;51.076;3.784;2023-12-22T13:32:40;12.70;99.90
45409;DHT22;31162;51.076;3.784;2023-12-22T13:35:06;12.70;99.90
45409;DHT22;31162;51.076;3.784;2023-12-22T13:37:31;12.60;99.90
45409;DHT22;31162;51.076;3.784;2023-12-22T13:39:57;12.60;99.90
45409;DHT22;31162;51.076;3.784;2023-12-22T13:42:23;12.60;99.90
45409;DHT22;31162;51.076;3.784;2023-12-22T13:44:50;12.70;99.90
45409;DHT22;31162;51.076;3.784;2023-12-22T13:47:18;12.70;99.90
45409;DHT22;31162;51.076;3.784;2023-12-22T13:49:47;12.80;99.90
45409;DHT22;31162;51.076;3.784;2023-12-22T13:52:29;12.70;99.90
45409;DHT22;31162;51.076;3.784;2023-12-22T13:55:00;12.70;99.90
45409;DHT22;31162;51.076;3.784;2023-12-22T13:57:27;12.70;99.90
45409;DHT22;31162;51.076;3.784;2023-12-22T13:59:54;12.70;99.90
45409;DHT22;31162;51.076;3.784;2023-12-22T14:02:23;12.60;99.90
45409;DHT22;31162;51.076;3.784;2023-12-22T14:04:50;12.60;99.90
45409;DHT22;31162;51.076;3.784;2023-12-22T14:07:16;12.60;99.90
45409;DHT22;31162;51.076;3.784;2023-12-22T14:09:42;12.50;99.90
45409;DHT22;31162;51.076;3.784;2023-12-22T14:12:08;12.50;99.90
45409;DHT22;31162;51.076;3.784;2023-12-22T14:14:33;12.50;99.90
45409;DHT22;31162;51.076;3.784;2023-12-22T14:16:59;12.60;99.90
45409;DHT22;31162;51.076;3.784;2023-12-22T14:19:25;12.60;99.90
45409;DHT22;31162;51.076;3.784;2023-12-22T14:21:50;12.50;99.90
45409;DHT22;31162;51.076;3.784;2023-12-22T14:24:16;12.50;99.90
45409;DHT22;31162;51.076;3.784;2023-12-22T14:26:56;12.50;99.90
45409;DHT22;31162;51.076;3.784;2023-12-22T14:29:22;12.50;99.90
45409;DHT22;31162;51.076;3.784;2023-12-22T14:31:51;12.60;99.90
45409;DHT22;31162;51.076;3.784;2023-12-22T14:34:17;12.50;99.90
45409;DHT22;31162;51.076;3.784;2023-12-22T14:36:44;12.60;99.90
45409;DHT22;31162;51.076;3.784;2023-12-22T14:39:10;12.50;99.90
45409;DHT22;31162;51.076;3.784;2023-12-22T14:41:38;12.50;99.90
45409;DHT22;31162;51.076;3.784;2023-12-22T14:44:04;12.50;99.90
45409;DHT22;31162;51.076;3.784;2023-12-22T14:46:30;12.50;99.90
45409;DHT22;31162;51.076;3.784;2023-12-22T14:48:56;12.50;99.90
45409;DHT22;31162;51.076;3.784;2023-12-22T14:51:22;12.50;99.90
45409;DHT22;31162;51.076;3.784;2023-12-22T14:53:47;12.50;99.90
45409;DHT22;31162;51.076;3.784;2023-12-22T14:56:13;12.50;99.90
45409;DHT22;31162;51.076;3.784;2023-12-22T14:58:38;12.60;99.90
45409;DHT22;31162;51.076;3.784;2023-12-22T15:01:04;12.60;99.90
45409;DHT22;31162;51.076;3.784;2023-12-22T15:03:30;12.60;99.90
45409;DHT22;31162;51.076;3.784;2023-12-22T15:05:55;12.60;99.90
45409;DHT22;31162;51.076;3.784;2023-12-22T15:08:21;12.60;99.90
45409;DHT22;31162;51.076;3.784;2023-12-22T15:10:46;12.60;99.90
45409;DHT22;31162;51.076;3.784;2023-12-22T15:13:12;12.50;99.90
45409;DHT22;31162;51.076;3.784;2023-12-22T15:15:38;12.50;99.90
45409;DHT22;31162;51.076;3.784;2023-12-22T15:18:04;12.50;99.90
45409;DHT22;31162;51.076;3.784;2023-12-22T15:20:29;12.50;99.90
45409;DHT22;31162;51.076;3.784;2023-12-22T15:22:55;12.50;99.90
45409;DHT22;31162;51.076;3.784;2023-12-22T15:25:20;12.50;99.90
45409;DHT22;31162;51.076;3.784;2023-12-22T15:27:46;12.50;99.90
45409;DHT22;31162;51.076;3.784;2023-12-22T15:30:12;12.50;99.90
45409;DHT22;31162;51.076;3.784;2023-12-22T15:32:38;12.50;99.90
45409;DHT22;31162;51.076;3.784;2023-12-22T15:35:05;12.50;99.90
45409;DHT22;31162;51.076;3.784;2023-12-22T15:37:31;12.40;99.90
45409;DHT22;31162;51.076;3.784;2023-12-22T15:39:56;12.40;99.90
45409;DHT22;31162;51.076;3.784;2023-12-22T15:42:22;12.40;99.90
45409;DHT22;31162;51.076;3.784;2023-12-22T15:44:47;12.40;99.90
45409;DHT22;31162;51.076;3.784;2023-12-22T15:47:14;12.40;99.90
45409;DHT22;31162;51.076;3.784;2023-12-22T15:49:39;12.50;99.90
45409;DHT22;31162;51.076;3.784;2023-12-22T15:52:05;12.50;99.90
45409;DHT22;31162;51.076;3.784;2023-12-22T15:54:31;12.50;99.90